Time;durP1;ratioP1;P1;durP2;ratioP2;P2;SDS_P1;SDS_P2;PMS_P1;PMS_P2;Temp;Humidity;BMP_temperature;BMP_pressure;BME280_temperature;BME280_humidity;BME280_pressure;Samples;Min_cycle;Max_cycle;Signal;HPM_P1;HPM_P2
2021/01/20 00:00:32;;;;;;;204.37;102.20;;;;;;;-14.61;56.61;100847.70;1624328;86;21958;-89
2021/01/20 00:02:59;;;;;;;209.10;106.33;;;;;;;-14.66;56.79;100843.06;1622171;86;21702;-92
2021/01/20 00:05:27;;;;;;;198.50;103.07;;;;;;;-14.61;57.19;100846.42;1604754;88;21228;-92
2021/01/20 00:07:55;;;;;;;206.67;111.67;;;;;;;-14.61;57.19;100846.42;1596927;88;21160;-92
2021/01/20 00:10:23;;;;;;;213.83;105.07;;;;;;;-14.58;57.37;100861.73;1598043;88;21945;-93
2021/01/20 00:12:51;;;;;;;220.00;111.17;;;;;;;-14.58;57.45;100855.33;1596033;88;22368;-92
2021/01/20 00:15:23;;;;;;;230.07;114.73;;;;;;;-14.60;57.32;100860.91;1594916;88;21986;-89
2021/01/20 00:17:51;;;;;;;203.90;102.63;;;;;;;-14.60;57.32;100860.91;1602673;88;21243;-88
2021/01/20 00:20:18;;;;;;;213.80;108.40;;;;;;;-14.65;56.98;100859.69;1603106;88;22024;-88
2021/01/20 00:22:49;;;;;;;220.30;107.57;;;;;;;-14.68;56.95;100863.55;1610395;87;21879;-88
2021/01/20 00:25:17;;;;;;;223.47;109.77;;;;;;;-14.70;57.12;100855.88;1627170;87;21961;-86
2021/01/20 00:27:45;;;;;;;220.63;111.80;;;;;;;-14.70;57.02;100857.59;1646282;85;21895;-88
2021/01/20 00:30:13;;;;;;;224.93;113.07;;;;;;;-14.74;57.13;100852.94;1690244;83;21923;-88
2021/01/20 00:32:40;;;;;;;221.23;114.13;;;;;;;-14.74;57.40;100853.38;1647330;85;21937;-87
2021/01/20 00:35:09;;;;;;;222.40;112.53;;;;;;;-14.72;57.42;100847.81;1662309;84;21055;-89
2021/01/20 00:37:37;;;;;;;222.27;115.27;;;;;;;-14.70;57.56;100849.48;1663323;84;21867;-88
2021/01/20 00:40:06;;;;;;;230.77;112.93;;;;;;;-14.69;57.41;100842.64;1617374;86;21959;-89
2021/01/20 00:42:33;;;;;;;218.50;111.53;;;;;;;-14.68;57.42;100840.52;1660065;84;21945;-89
2021/01/20 00:45:02;;;;;;;224.50;109.97;;;;;;;-14.65;57.58;100844.33;1671596;84;21943;-90
2021/01/20 00:47:28;;;;;;;220.73;109.73;;;;;;;-14.61;57.57;100842.59;1667027;84;21931;-86
2021/01/20 00:49:56;;;;;;;206.30;105.00;;;;;;;-14.59;57.50;100840.41;1657356;84;21876;-88
2021/01/20 00:52:23;;;;;;;;;;;;;;;-14.56;57.43;100839.48;1640214;85;21894;-89
2021/01/20 00:54:50;;;;;;;208.85;101.70;;;;;;;-14.56;57.36;100842.05;1646502;85;20199;-88
2021/01/20 00:57:17;;;;;;;198.37;100.97;;;;;;;-14.60;57.25;100840.42;1639673;85;21555;-87
2021/01/20 00:59:44;;;;;;;194.30;105.17;;;;;;;-14.62;57.15;100842.99;1646470;85;21922;-87
2021/01/20 01:02:12;;;;;;;201.13;98.50;;;;;;;-14.65;57.14;100833.22;1643406;86;21769;-88
2021/01/20 01:04:40;;;;;;;197.77;104.23;;;;;;;-14.63;57.10;100836.61;1652776;85;21859;-90
2021/01/20 01:07:09;;;;;;;219.27;107.07;;;;;;;-14.62;57.14;100835.76;1647457;85;22066;-88
2021/01/20 01:09:37;;;;;;;212.43;107.77;;;;;;;-14.64;57.17;100838.33;1657998;85;21969;-89
2021/01/20 01:12:07;;;;;;;218.80;111.50;;;;;;;-14.66;57.36;100834.10;1662582;83;22401;-92
2021/01/20 01:14:38;;;;;;;208.17;104.30;;;;;;;-14.70;57.21;100835.41;1676800;83;21854;-92
2021/01/20 01:17:14;;;;;;;206.13;105.47;;;;;;;-14.69;57.50;100842.64;1677116;83;22032;-91
2021/01/20 01:19:53;;;;;;;211.53;110.97;;;;;;;-14.75;57.44;100839.71;1669129;83;21935;-91
2021/01/20 01:22:21;;;;;;;214.83;113.50;;;;;;;-14.80;57.30;100850.45;1678206;83;22061;-89
2021/01/20 01:24:59;;;;;;;219.83;110.80;;;;;;;-14.82;57.26;100843.63;1675068;83;21888;-92
2021/01/20 01:27:33;;;;;;;214.73;109.63;;;;;;;-14.86;57.38;100842.81;1675104;83;21892;-92
2021/01/20 01:30:04;;;;;;;216.47;109.70;;;;;;;-15.34;57.42;100761.89;1671684;83;22378;-93
2021/01/20 01:32:36;;;;;;;215.90;110.33;;;;;;;-14.86;57.43;100836.86;1684737;83;21863;-92
2021/01/20 01:35:08;;;;;;;222.23;109.50;;;;;;;-14.87;57.46;100838.58;1687120;82;22165;-93
2021/01/20 01:37:46;;;;;;;221.80;113.57;;;;;;;-14.82;57.53;100838.11;1821008;77;22638;-96
2021/01/20 01:40:25;;;;;;;225.87;113.80;;;;;;;-14.84;57.48;100837.69;1716080;80;22718;-92
2021/01/20 01:43:10;;;;;;;230.23;113.63;;;;;;;-14.85;57.73;100837.29;1734176;81;21861;-94
2021/01/20 01:45:38;;;;;;;218.07;107.70;;;;;;;-14.85;58.13;100840.69;1697642;82;22465;-86
2021/01/20 01:48:06;;;;;;;217.43;109.23;;;;;;;-14.83;58.52;100846.63;1713277;82;21929;-88
2021/01/20 01:50:34;;;;;;;216.67;112.00;;;;;;;-14.82;58.40;100838.11;1711303;82;21890;-88
2021/01/20 01:53:01;;;;;;;213.20;108.80;;;;;;;-14.79;57.92;100837.22;1690102;82;21894;-84
2021/01/20 01:56:15;;;;;;;203.47;103.17;;;;;;;-14.76;57.74;100839.31;1795114;77;23017;-87
2021/01/20 01:58:55;;;;;;;199.03;101.97;;;;;;;-15.60;58.13;100714.84;1715351;78;21807;-95
2021/01/20 02:02:37;;;;;;;;;;;;;;;;;;;;;
2021/01/20 02:05:23;;;;;;;213.67;107.07;;;;;;;-14.71;58.21;100849.08;1791797;78;23170;-96
2021/01/20 02:08:04;;;;;;;210.47;104.33;;;;;;;-14.81;57.86;100847.91;1779770;78;21790;-94
2021/01/20 02:12:09;;;;;;;213.18;105.15;;;;;;;-14.83;57.97;100854.75;1738586;79;22266;-94
2021/01/20 02:15:40;;;;;;;211.57;106.10;;;;;;;-14.86;57.72;100844.09;1685840;83;21332;-94
2021/01/20 02:19:06;;;;;;;178.73;94.10;;;;;;;-14.90;57.75;100841.16;1678689;83;22113;-96
2021/01/20 02:22:33;;;;;;;211.83;98.63;;;;;;;-14.95;58.84;100845.05;1611821;85;21940;-96
2021/01/20 02:26:14;;;;;;;191.07;97.53;;;;;;;-14.95;58.84;100845.05;1673967;83;21392;-94
2021/01/20 02:30:13;;;;;;;201.37;97.97;;;;;;;-14.82;58.75;100841.95;1682031;84;21913;-96
2021/01/20 02:33:49;;;;;;;188.50;91.77;;;;;;;-14.81;58.11;100840.22;1663383;83;21909;-96
2021/01/20 02:40:52;;;;;;;204.20;97.70;;;;;;;-15.04;58.18;100840.02;1725089;81;22022;-96
2021/01/20 02:44:22;;;;;;;218.97;105.50;;;;;;;-15.06;58.35;100842.19;1729043;81;22376;-96
2021/01/20 02:47:25;;;;;;;189.80;93.73;;;;;;;-15.03;58.33;100852.38;1716867;82;21165;-94
2021/01/20 02:56:53;;;;;;;197.40;101.10;;;;;;;-15.10;58.29;100857.55;1776395;77;23602;-94
2021/01/20 02:59:36;;;;;;;202.07;102.30;;;;;;;-15.19;58.15;100851.23;1826938;76;22965;-95
2021/01/20 03:02:47;;;;;;;196.90;96.10;;;;;;;-15.34;58.69;100861.59;1667993;81;25002;-85
2021/01/20 03:05:14;;;;;;;207.43;102.40;;;;;;;-15.34;59.09;100867.98;1642515;85;21925;-86
2021/01/20 03:07:41;;;;;;;;;;;;;;;-15.34;59.09;100867.98;1656428;84;21996;-85
2021/01/20 03:10:11;;;;;;;205.43;101.97;;;;;;;-15.33;58.61;100870.94;1670102;82;20141;-87
2021/01/20 03:12:49;;;;;;;197.43;100.50;;;;;;;-15.43;58.44;100865.49;1653505;82;21853;-93
2021/01/20 03:15:43;;;;;;;201.10;98.37;;;;;;;-15.46;58.19;100870.61;1664586;82;22027;-92
2021/01/20 03:18:35;;;;;;;194.45;98.45;;;;;;;-15.46;58.19;100870.61;1682813;84;22331;-91
2021/01/20 03:21:47;;;;;;;;;;;;;;;;;;;;;
2021/01/20 03:28:42;;;;;;;201.90;96.27;;;;;;;-15.61;59.55;100884.34;1589365;86;22037;-95
2021/01/20 03:31:53;;;;;;;186.20;94.23;;;;;;;-15.65;58.87;100889.06;1866253;74;22583;-93
2021/01/20 03:34:21;;;;;;;195.87;99.50;;;;;;;-15.68;58.76;100889.94;1843375;77;21579;-92
2021/01/20 03:36:50;;;;;;;191.23;96.17;;;;;;;-15.68;58.76;100889.94;1789317;78;21855;-92
2021/01/20 03:39:20;;;;;;;196.53;96.10;;;;;;;-15.70;58.72;100886.11;1782171;79;21873;-92
2021/01/20 03:41:48;;;;;;;200.93;100.43;;;;;;;-15.70;58.74;100888.66;1786057;79;21987;-93
2021/01/20 03:47:16;;;;;;;186.87;91.77;;;;;;;-15.56;58.84;100880.06;1849095;76;22388;-84
2021/01/20 03:49:45;;;;;;;181.87;95.80;;;;;;;-15.56;58.84;100880.06;1803146;77;21824;-84
2021/01/20 03:52:14;;;;;;;188.60;93.27;;;;;;;-15.63;58.68;100860.11;1795786;79;21789;-85
2021/01/20 03:54:41;;;;;;;177.53;89.17;;;;;;;-15.49;58.35;100882.56;1793417;78;21855;-85
2021/01/20 03:57:08;;;;;;;192.83;95.87;;;;;;;-15.46;58.41;100883.40;1754924;79;21859;-85
2021/01/20 03:59:37;;;;;;;183.97;95.20;;;;;;;-15.46;58.27;100883.40;1745854;80;22263;-85
2021/01/20 04:02:05;;;;;;;180.93;89.63;;;;;;;-15.47;58.13;100879.16;1699458;80;22100;-86
2021/01/20 04:04:33;;;;;;;189.20;95.87;;;;;;;-15.50;57.88;100873.63;1700497;83;21860;-85
2021/01/20 04:07:19;;;;;;;188.93;97.00;;;;;;;-15.53;57.72;100864.28;1895515;74;22450;-83
2021/01/20 04:09:46;;;;;;;170.67;91.03;;;;;;;-15.58;57.72;100866.02;1862602;75;21977;-84
2021/01/20 04:12:13;;;;;;;165.07;81.53;;;;;;;-15.55;58.06;100867.72;1823688;75;21735;-84
2021/01/20 04:14:40;;;;;;;160.27;81.40;;;;;;;-15.63;60.28;100861.38;1785000;79;21906;-86
2021/01/20 04:17:08;;;;;;;140.20;72.80;;;;;;;-15.63;60.28;100861.38;1763426;79;21615;-85
2021/01/20 04:19:37;;;;;;;174.43;86.97;;;;;;;-15.62;60.31;100864.34;1787527;79;22478;-85
2021/01/20 04:22:04;;;;;;;192.30;94.73;;;;;;;-15.65;60.18;100859.23;1773073;78;22002;-84
2021/01/20 04:24:31;;;;;;;186.97;94.17;;;;;;;-15.55;60.59;100857.05;1749160;80;21916;-84
2021/01/20 04:26:59;;;;;;;132.80;66.90;;;;;;;-15.55;60.59;100857.05;1769433;80;22148;-84
2021/01/20 04:29:26;;;;;;;182.40;88.77;;;;;;;-15.50;60.71;100851.48;1758048;80;22007;-83
2021/01/20 04:31:53;;;;;;;165.43;82.67;;;;;;;-15.53;60.83;100845.55;1760538;80;22021;-85
2021/01/20 04:34:21;;;;;;;179.00;91.20;;;;;;;-15.60;60.90;100842.17;1770911;80;21755;-86
2021/01/20 04:36:48;;;;;;;194.93;93.97;;;;;;;-15.60;60.96;100844.73;1762950;80;22103;-87
2021/01/20 04:39:15;;;;;;;181.07;93.87;;;;;;;-15.56;60.51;100843.84;1782166;80;21743;-85
2021/01/20 04:43:08;;;;;;;183.73;90.43;;;;;;;-15.50;60.29;100845.50;1820607;75;24204;-85
2021/01/20 04:45:36;;;;;;;156.47;79.27;;;;;;;-15.55;60.33;100851.10;1740209;78;21830;-84
2021/01/20 04:48:03;;;;;;;151.80;77.07;;;;;;;-15.75;60.71;100844.88;1715220;82;21725;-84
2021/01/20 04:50:31;;;;;;;155.50;71.37;;;;;;;-15.97;61.36;100847.97;1710396;82;22053;-84
2021/01/20 04:53:01;;;;;;;153.37;71.20;;;;;;;-16.18;62.23;100862.98;1674980;82;22132;-82
2021/01/20 04:55:28;;;;;;;147.90;72.83;;;;;;;-16.34;61.87;100867.31;1627847;86;21654;-84
2021/01/20 04:57:56;;;;;;;167.47;84.93;;;;;;;-16.34;61.87;100867.31;1617920;87;21946;-85
2021/01/20 05:00:24;;;;;;;161.70;81.67;;;;;;;-16.34;62.01;100866.04;1616163;83;21701;-83
2021/01/20 05:02:51;;;;;;;166.90;80.13;;;;;;;-16.24;61.84;100872.80;1663793;85;23052;-84
2021/01/20 05:05:18;;;;;;;145.20;68.30;;;;;;;-16.24;61.84;100872.80;1666758;85;21748;-82
2021/01/20 05:07:45;;;;;;;180.67;85.27;;;;;;;-16.18;61.66;100880.41;1708382;83;21768;-82
2021/01/20 05:10:13;;;;;;;171.33;82.60;;;;;;;-16.14;61.83;100878.70;1712954;82;21690;-86
2021/01/20 05:12:42;;;;;;;151.83;74.87;;;;;;;-16.10;62.37;100876.58;1659569;83;22301;-84
2021/01/20 05:15:13;;;;;;;133.50;62.77;;;;;;;-16.10;62.37;100876.58;1656982;84;21703;-82
2021/01/20 05:17:59;;;;;;;154.40;77.77;;;;;;;-16.10;62.31;100877.42;1637596;86;22014;-83
2021/01/20 05:20:35;;;;;;;134.87;63.93;;;;;;;-16.03;62.70;100883.77;1617030;87;21662;-83
2021/01/20 05:23:05;;;;;;;130.93;63.83;;;;;;;-16.03;62.70;100883.77;1625324;85;21678;-85
2021/01/20 05:25:36;;;;;;;134.27;66.73;;;;;;;-16.03;63.22;100885.89;1670359;84;21212;-84
2021/01/20 05:28:26;;;;;;;128.97;63.27;;;;;;;-16.02;63.29;100886.32;1672233;83;21612;-83
2021/01/20 05:30:59;;;;;;;129.97;66.97;;;;;;;-15.97;63.54;100889.71;1667386;85;21730;-84
2021/01/20 05:33:29;;;;;;;145.03;70.70;;;;;;;-15.97;63.54;100889.71;1663173;84;21539;-83
2021/01/20 05:36:08;;;;;;;136.93;62.27;;;;;;;-16.02;63.50;100892.70;1662195;84;21906;-85
2021/01/20 05:38:43;;;;;;;150.17;73.20;;;;;;;-16.13;64.15;100899.56;1658591;83;21493;-84
2021/01/20 05:41:28;;;;;;;137.70;67.43;;;;;;;-16.14;64.20;100895.30;1665960;85;21723;-83
2021/01/20 05:44:12;;;;;;;130.27;65.83;;;;;;;-16.13;64.40;100897.85;1688785;83;21573;-85
2021/01/20 05:46:42;;;;;;;127.97;60.43;;;;;;;-16.19;64.80;100885.13;1686668;83;21786;-84
2021/01/20 05:49:26;;;;;;;144.93;70.33;;;;;;;-16.11;65.04;100905.52;1664242;85;22268;-85
2021/01/20 05:52:21;;;;;;;137.67;69.53;;;;;;;-16.05;64.95;100896.98;1835502;77;22798;-85
2021/01/20 05:54:48;;;;;;;145.47;73.60;;;;;;;-16.06;64.86;100902.52;1710433;81;21589;-84
2021/01/20 05:57:21;;;;;;;129.47;64.90;;;;;;;-15.92;64.74;100902.01;1664821;82;21606;-85
2021/01/20 05:59:52;;;;;;;129.73;62.43;;;;;;;-15.86;64.82;100910.51;1698825;83;21969;-86
2021/01/20 06:02:19;;;;;;;113.37;56.47;;;;;;;-15.86;64.82;100910.51;1693667;84;21452;-85
2021/01/20 06:04:48;;;;;;;124.07;60.50;;;;;;;-15.80;65.79;100915.58;1669240;84;22239;-85
2021/01/20 06:07:15;;;;;;;94.47;43.50;;;;;;;-15.74;65.83;100919.40;1688229;83;21697;-83
2021/01/20 06:09:44;;;;;;;87.20;43.87;;;;;;;-15.74;65.83;100919.40;1685258;83;21762;-83
2021/01/20 06:12:13;;;;;;;114.23;57.63;;;;;;;-15.75;65.96;100918.97;1688960;82;21743;-87
2021/01/20 06:14:41;;;;;;;99.27;48.53;;;;;;;-15.60;65.89;100916.72;1702608;82;22455;-82
2021/01/20 06:17:23;;;;;;;100.10;47.70;;;;;;;-15.54;65.77;100916.23;1708347;83;21723;-84
2021/01/20 06:19:50;;;;;;;112.17;55.23;;;;;;;-15.54;65.77;100916.23;1729916;82;21711;-84
2021/01/20 06:22:18;;;;;;;115.83;51.67;;;;;;;-15.43;65.34;100911.50;1675322;83;21767;-84
2021/01/20 06:24:49;;;;;;;95.17;49.17;;;;;;;-15.43;65.34;100911.50;1656180;83;80578;-85
2021/01/20 06:27:41;;;;;;;101.47;49.97;;;;;;;-15.43;65.32;100917.45;1664973;85;21235;-86
2021/01/20 06:30:39;;;;;;;116.83;58.63;;;;;;;-15.34;65.00;100914.00;1658281;85;21953;-82
2021/01/20 06:33:15;;;;;;;115.07;56.40;;;;;;;-15.25;64.74;100914.34;1657943;85;22864;-87
2021/01/20 06:35:50;;;;;;;96.67;46.10;;;;;;;-15.16;64.60;100915.16;1696408;82;21921;-86
2021/01/20 06:38:32;;;;;;;98.90;46.03;;;;;;;-15.03;64.32;100910.77;1695764;83;22209;-84
2021/01/20 06:41:10;;;;;;;106.20;51.77;;;;;;;-14.94;64.00;100918.36;1705667;82;22093;-85
2021/01/20 06:43:46;;;;;;;116.93;51.37;;;;;;;-14.94;64.00;100906.84;1691722;83;21961;-85
2021/01/20 06:46:27;;;;;;;112.92;51.80;;;;;;;-14.86;63.49;100918.73;1694283;83;21841;-84
2021/01/20 06:49:01;;;;;;;112.50;58.20;;;;;;;-14.76;63.89;100918.64;1689621;82;21359;-85
2021/01/20 06:51:29;;;;;;;89.70;41.33;;;;;;;-14.52;62.82;100917.53;1675019;83;22136;-84
2021/01/20 06:54:05;;;;;;;95.50;45.83;;;;;;;-14.52;62.82;100917.53;1704355;82;22044;-83
2021/01/20 06:56:49;;;;;;;80.50;39.37;;;;;;;-14.51;62.68;100913.25;1723446;81;21828;-84
2021/01/20 06:59:36;;;;;;;79.53;40.13;;;;;;;-14.47;62.60;100917.91;1735269;81;21881;-87
2021/01/20 07:02:10;;;;;;;84.20;42.83;;;;;;;-14.47;62.62;100914.07;1681744;83;22571;-84
2021/01/20 07:04:53;;;;;;;99.60;52.23;;;;;;;-14.43;62.66;100914.45;1656167;83;21859;-82
2021/01/20 07:07:54;;;;;;;86.17;39.67;;;;;;;-14.33;62.64;100916.91;1799236;77;23566;-84
2021/01/20 07:10:26;;;;;;;89.50;46.17;;;;;;;-14.39;62.50;100921.23;1778736;79;21944;-85
2021/01/20 07:13:14;;;;;;;93.97;43.20;;;;;;;-14.43;62.73;100920.41;1753297;79;21896;-88
2021/01/20 07:15:46;;;;;;;83.43;37.37;;;;;;;-14.56;62.97;100932.92;1723936;81;21917;-86
2021/01/20 07:18:16;;;;;;;103.67;51.10;;;;;;;-14.56;62.97;100932.92;1742967;81;21985;-84
2021/01/20 07:20:47;;;;;;;63.17;33.43;;;;;;;-14.51;63.27;100941.41;1737892;81;21625;-82
2021/01/20 07:23:14;;;;;;;81.73;39.20;;;;;;;-14.46;63.36;100937.52;1744228;79;21806;-85
2021/01/20 07:25:41;;;;;;;91.50;40.00;;;;;;;-14.42;63.04;100929.80;1736476;80;22431;-86
2021/01/20 07:28:09;;;;;;;96.70;48.07;;;;;;;-14.38;63.02;100946.83;1711492;81;22151;-87
2021/01/20 07:30:54;;;;;;;96.73;47.17;;;;;;;-14.34;62.97;100938.69;1800555;77;22971;-87
2021/01/20 07:33:22;;;;;;;93.73;47.10;;;;;;;-14.31;62.79;100950.19;1721360;81;21850;-87
2021/01/20 07:35:52;;;;;;;88.10;41.77;;;;;;;-14.22;62.89;100942.81;1685680;84;21948;-85
2021/01/20 07:38:33;;;;;;;88.57;44.07;;;;;;;-14.06;62.55;100946.91;1664491;84;22208;-88
2021/01/20 07:41:18;;;;;;;94.77;49.60;;;;;;;-14.01;62.16;100944.28;1691745;84;21908;-84
2021/01/20 07:44:06;;;;;;;91.63;46.45;;;;;;;-13.97;62.12;100949.37;1690537;83;21843;-87
2021/01/20 07:46:37;;;;;;;99.17;47.77;;;;;;;-13.91;62.30;100949.73;1659502;85;21832;-87
2021/01/20 07:49:12;;;;;;;111.30;52.83;;;;;;;-13.79;62.16;100953.84;1659620;85;22044;-86
2021/01/20 07:51:42;;;;;;;104.45;52.08;;;;;;;-13.62;61.94;100953.19;1679826;84;21917;-86
2021/01/20 07:54:09;;;;;;;100.10;44.37;;;;;;;-13.50;61.49;100962.87;1678687;84;21810;-89
2021/01/20 07:56:40;;;;;;;108.33;54.43;;;;;;;-13.29;60.97;100961.72;1692694;84;21770;-93
2021/01/20 07:59:32;;;;;;;;;;;;;;;;;;;;;
2021/01/20 08:02:21;;;;;;;100.33;53.43;;;;;;;-13.14;60.52;100961.05;1743253;77;24160;-91
2021/01/20 08:05:08;;;;;;;104.70;52.27;;;;;;;-13.06;60.45;100963.49;1665310;83;21821;-90
2021/01/20 08:07:51;;;;;;;91.57;48.17;;;;;;;-12.93;59.74;100972.70;1697656;81;21852;-88
2021/01/20 08:10:24;;;;;;;86.27;41.17;;;;;;;-12.81;59.16;100974.66;1724247;79;21986;-90
2021/01/20 08:12:56;;;;;;;88.93;50.60;;;;;;;-12.81;59.16;100974.66;1664836;79;21057;-91
2021/01/20 08:15:40;;;;;;;86.97;48.13;;;;;;;-12.80;59.18;100986.20;1694978;81;21857;-88
2021/01/20 08:32:12;;;;;;;77.53;39.67;;;;;;;-12.65;57.83;100972.70;1826380;77;25304;-90
2021/01/20 08:34:49;;;;;;;82.63;38.07;;;;;;;-12.74;58.13;100977.55;1754767;79;21891;-92
2021/01/20 08:37:49;;;;;;;89.47;48.97;;;;;;;-12.80;58.50;100977.66;1735637;77;26610;-84
2021/01/20 08:40:24;;;;;;;;;;;;;;;-12.78;58.54;100969.05;1684830;81;22424;-84
2021/01/20 08:42:48;;;;;;;88.33;42.97;;;;;;;-12.64;58.67;100966.23;1688776;82;20202;-83
2021/01/20 08:45:29;;;;;;;92.83;45.83;;;;;;;-12.48;58.71;100964.27;1688641;81;23157;-87
2021/01/20 08:48:07;;;;;;;97.87;49.30;;;;;;;-12.39;58.02;100964.55;1660222;84;21235;-86
2021/01/20 08:50:43;;;;;;;79.20;36.83;;;;;;;-12.29;57.99;100962.66;1660256;83;21319;-85
2021/01/20 08:53:29;;;;;;;90.40;46.33;;;;;;;-12.13;57.16;100958.91;1785670;78;23958;-87
2021/01/20 08:55:58;;;;;;;77.03;38.57;;;;;;;-12.14;57.22;100963.66;1733617;81;21518;-87
2021/01/20 08:59:01;;;;;;;78.47;41.40;;;;;;;-12.12;57.11;100954.64;1806749;78;23111;-82
2021/01/20 09:01:29;;;;;;;76.63;38.97;;;;;;;-12.10;57.53;100960.59;1729627;79;21286;-84
2021/01/20 09:04:02;;;;;;;82.17;35.80;;;;;;;-12.00;57.23;100957.80;1681126;83;21226;-84
2021/01/20 09:17:24;;;;;;;;;;;;;;;;;;;;;
2021/01/20 09:20:09;;;;;;;74.03;39.07;;;;;;;-12.19;58.62;100950.04;1791618;77;23129;-85
2021/01/20 09:22:41;;;;;;;78.77;38.80;;;;;;;-12.22;58.90;100955.22;1733506;80;22827;-86
2021/01/20 09:25:12;;;;;;;87.70;41.70;;;;;;;-12.11;58.79;100949.44;1683124;83;21847;-85
2021/01/20 09:27:45;;;;;;;84.20;42.23;;;;;;;-12.09;58.56;100952.86;1657230;84;23077;-85
2021/01/20 09:30:14;;;;;;;73.43;37.60;;;;;;;-12.03;58.69;100929.59;1648599;85;21350;-86
2021/01/20 09:32:43;;;;;;;76.23;39.97;;;;;;;-11.92;58.87;100946.52;1646136;85;21201;-84
2021/01/20 09:35:13;;;;;;;73.33;36.63;;;;;;;-11.78;59.21;100950.92;1659136;83;21127;-84
2021/01/20 09:37:41;;;;;;;73.50;33.87;;;;;;;-11.64;58.70;100954.48;1648751;85;21230;-84
2021/01/20 09:40:11;;;;;;;73.33;35.70;;;;;;;-11.60;58.72;100950.55;1654860;85;21238;-85
2021/01/20 09:42:41;;;;;;;74.40;39.27;;;;;;;-11.49;58.58;100946.88;1661566;85;21619;-88
2021/01/20 09:45:26;;;;;;;72.30;36.50;;;;;;;-11.36;58.51;100944.02;1648218;85;21218;-89
2021/01/20 09:47:58;;;;;;;71.03;38.17;;;;;;;-11.21;57.94;100944.09;1643051;86;21271;-89
2021/01/20 09:50:47;;;;;;;64.20;31.37;;;;;;;-11.19;57.88;100941.07;1629520;86;21164;-92
2021/01/20 09:53:26;;;;;;;61.63;33.10;;;;;;;-11.11;57.64;100946.03;1679250;84;21223;-88
2021/01/20 09:55:53;;;;;;;77.07;36.93;;;;;;;-11.03;57.82;100936.84;1665630;84;21271;-84
2021/01/20 09:58:20;;;;;;;76.00;39.30;;;;;;;-11.01;57.34;100937.65;1660304;85;21687;-83
2021/01/20 10:00:48;;;;;;;73.77;34.50;;;;;;;-11.13;57.69;100939.21;1683534;83;21076;-85
2021/01/20 10:03:15;;;;;;;75.80;38.40;;;;;;;-11.18;58.44;100936.76;1666979;84;21338;-87
2021/01/20 10:05:56;;;;;;;65.47;32.33;;;;;;;-11.09;58.61;100932.69;1678795;84;21806;-87
2021/01/20 10:08:24;;;;;;;67.27;35.73;;;;;;;-11.05;58.34;100937.33;1692503;83;21204;-86
2021/01/20 10:10:53;;;;;;;66.63;35.67;;;;;;;-11.08;58.62;100936.09;1653534;85;21251;-84
2021/01/20 10:13:22;;;;;;;71.73;38.07;;;;;;;-10.99;58.73;100921.27;1647379;85;21129;-85
2021/01/20 10:15:50;;;;;;;67.60;32.90;;;;;;;-10.91;58.62;100924.94;1630606;87;21204;-87
2021/01/20 10:18:17;;;;;;;65.00;32.57;;;;;;;-10.73;58.51;100921.08;1685180;84;21159;-85
2021/01/20 10:20:51;;;;;;;71.83;35.73;;;;;;;-10.65;58.11;100920.88;1679403;84;21196;-87
2021/01/20 10:23:26;;;;;;;79.33;36.67;;;;;;;-10.64;58.35;100926.42;1655550;85;21081;-84
2021/01/20 10:25:53;;;;;;;62.77;31.33;;;;;;;-10.77;58.30;100905.30;1684094;84;21241;-83
2021/01/20 10:28:21;;;;;;;58.77;29.93;;;;;;;-10.58;58.33;100915.53;1665051;84;21213;-82
2021/01/20 10:30:57;;;;;;;59.88;31.50;;;;;;;-10.43;58.25;100923.31;1668820;84;21172;-87
2021/01/20 10:33:34;;;;;;;68.05;44.08;;;;;;;-10.23;57.34;100918.02;1811198;76;29493;-85
2021/01/20 10:36:03;;;;;;;;;;;;;;;-10.06;56.77;100909.81;1779613;79;21311;-84
2021/01/20 10:38:40;;;;;;;71.00;31.97;;;;;;;-9.94;56.55;100912.48;1775091;79;20312;-82
2021/01/20 10:41:07;;;;;;;51.30;28.10;;;;;;;-9.97;56.56;100896.66;1775740;79;21310;-84
2021/01/20 10:43:37;;;;;;;62.03;32.47;;;;;;;-10.05;56.65;100906.37;1736427;80;21216;-84
2021/01/20 10:46:04;;;;;;;53.90;30.17;;;;;;;-10.08;56.96;100902.57;1702612;80;21534;-84
2021/01/20 10:48:31;;;;;;;52.27;27.63;;;;;;;-10.04;57.29;100911.48;1734629;81;21191;-84
2021/01/20 10:50:58;;;;;;;64.93;31.40;;;;;;;-10.01;56.90;100916.54;1748770;80;21318;-85
2021/01/20 10:53:27;;;;;;;61.17;33.97;;;;;;;-10.03;56.67;100904.13;1738692;80;21772;-83
2021/01/20 10:55:55;;;;;;;52.77;27.90;;;;;;;-9.98;57.23;100904.02;1736163;79;21255;-83
2021/01/20 10:58:22;;;;;;;64.60;35.37;;;;;;;-9.94;56.86;100909.91;1763268;80;21196;-86
2021/01/20 11:00:49;;;;;;;60.27;30.97;;;;;;;-10.02;56.67;100903.68;1726049;80;21258;-84
2021/01/20 11:03:16;;;;;;;54.50;29.60;;;;;;;-10.01;56.90;100894.62;1744814;80;21229;-85
2021/01/20 11:06:04;;;;;;;63.17;32.13;;;;;;;-9.93;57.12;100899.55;1696153;82;21305;-83
2021/01/20 11:08:31;;;;;;;56.77;25.53;;;;;;;-9.87;56.89;100895.53;1715006;82;21617;-85
2021/01/20 11:11:01;;;;;;;56.37;29.03;;;;;;;-9.85;56.68;100891.17;1716719;82;21470;-82
2021/01/20 11:13:30;;;;;;;52.10;25.30;;;;;;;-9.75;56.66;100888.32;1772516;79;21166;-85
2021/01/20 11:15:57;;;;;;;46.13;23.07;;;;;;;-9.65;56.62;100885.40;1771149;79;21171;-86
2021/01/20 11:18:25;;;;;;;55.93;27.70;;;;;;;-9.60;56.39;100887.41;1769147;79;21684;-87
2021/01/20 11:20:52;;;;;;;46.40;24.97;;;;;;;-9.58;56.32;100889.11;1768593;80;21604;-89
2021/01/20 11:23:19;;;;;;;41.80;22.53;;;;;;;-9.58;56.27;100889.94;1708506;81;21101;-86
2021/01/20 11:25:48;;;;;;;51.87;27.50;;;;;;;-9.53;56.54;100889.79;1707040;82;21795;-85
2021/01/20 11:28:16;;;;;;;46.43;23.47;;;;;;;-9.51;56.28;100890.16;1711678;82;21184;-85
2021/01/20 11:30:44;;;;;;;47.60;21.30;;;;;;;-9.42;56.36;100887.30;1709618;82;21650;-83
2021/01/20 11:33:17;;;;;;;43.63;23.80;;;;;;;-9.38;55.69;100884.15;1700900;82;21659;-85
2021/01/20 11:35:44;;;;;;;44.30;27.03;;;;;;;-9.33;55.69;100887.89;1732074;81;21211;-85
2021/01/20 11:38:16;;;;;;;53.57;26.33;;;;;;;-9.40;55.70;100885.52;1746871;80;21316;-85
2021/01/20 11:40:42;;;;;;;46.57;25.37;;;;;;;-9.34;55.95;100892.22;1756595;80;21807;-84
2021/01/20 11:43:14;;;;;;;45.63;23.90;;;;;;;-9.25;55.88;100879.02;1755819;80;21170;-84
2021/01/20 11:45:46;;;;;;;51.37;28.00;;;;;;;-9.15;55.84;100883.87;1744882;78;21084;-89
2021/01/20 11:48:15;;;;;;;49.20;26.53;;;;;;;-9.05;55.64;100874.95;1741282;80;21177;-86
2021/01/20 11:50:44;;;;;;;47.20;21.50;;;;;;;-8.90;55.17;100877.47;1679203;83;21152;-88
2021/01/20 11:53:13;;;;;;;41.10;25.03;;;;;;;-8.86;54.20;100878.59;1635593;82;21174;-88
2021/01/20 11:55:41;;;;;;;39.17;22.97;;;;;;;-8.90;54.23;100854.22;1757629;78;21066;-89
2021/01/20 11:58:10;;;;;;;52.70;23.83;;;;;;;-8.74;53.98;100870.03;1796331;78;21104;-89
2021/01/20 12:00:42;;;;;;;41.90;22.63;;;;;;;-8.87;53.72;100873.05;1768913;78;21425;-90
2021/01/20 12:03:11;;;;;;;40.60;21.57;;;;;;;-8.85;53.91;100862.21;1793671;78;21149;-91
2021/01/20 12:05:42;;;;;;;39.00;21.60;;;;;;;-8.88;54.15;100877.80;1803389;78;21233;-88
2021/01/20 12:08:10;;;;;;;51.13;23.83;;;;;;;-8.90;54.28;100873.59;1771518;78;21308;-87
2021/01/20 12:10:49;;;;;;;35.47;20.37;;;;;;;-8.88;54.42;100866.64;1788469;78;21123;-90
2021/01/20 12:13:21;;;;;;;46.30;24.43;;;;;;;-8.82;54.33;100863.38;1790453;78;21067;-90
2021/01/20 12:16:19;;;;;;;45.70;23.90;;;;;;;-8.79;53.98;100868.08;1798137;78;21097;-87
2021/01/20 12:18:56;;;;;;;41.23;20.70;;;;;;;-8.80;53.87;100860.75;1781687;78;21156;-89
2021/01/20 12:21:42;;;;;;;41.30;22.17;;;;;;;-8.87;53.93;100859.27;1797377;78;21205;-91
2021/01/20 12:24:15;;;;;;;48.77;25.03;;;;;;;-8.96;54.61;100863.47;1793934;78;21076;-88
2021/01/20 12:26:45;;;;;;;58.47;28.80;;;;;;;-8.97;54.41;100866.48;1781915;78;21535;-91